Time;durP1;ratioP1;P1;durP2;ratioP2;P2;SDS_P1;SDS_P2;PMS_P1;PMS_P2;Temp;Humidity;BMP_temperature;BMP_pressure;BME280_temperature;BME280_humidity;BME280_pressure;Samples;Min_cycle;Max_cycle;Signal;HPM_P1;HPM_P2
2021/07/25 00:02:27;;;;;;;22.37;10.72;;;;;;;14.55;88.93;94783.97;1633819;87;21089;-54
2021/07/25 00:04:54;;;;;;;14.53;10.43;;;;;;;14.51;88.99;94786.94;1633558;87;21454;-54
2021/07/25 00:07:20;;;;;;;12.07;9.85;;;;;;;14.48;88.91;94789.23;1635779;87;21120;-54
2021/07/25 00:09:49;;;;;;;22.00;10.38;;;;;;;14.46;88.67;94777.88;1633317;87;21074;-54
2021/07/25 00:12:15;;;;;;;23.12;11.53;;;;;;;14.43;88.63;94782.22;1633248;87;21013;-53
2021/07/25 00:14:42;;;;;;;23.45;11.20;;;;;;;14.41;88.73;94785.30;1635543;87;21084;-53
2021/07/25 00:17:09;;;;;;;15.55;9.55;;;;;;;14.36;88.98;94779.03;1637391;87;21011;-54
2021/07/25 00:19:36;;;;;;;25.60;10.63;;;;;;;14.29;89.31;94786.28;1625572;88;21050;-54
2021/07/25 00:22:05;;;;;;;30.75;11.30;;;;;;;14.22;89.29;94783.23;1627905;87;21030;-54
2021/07/25 00:24:34;;;;;;;36.55;12.55;;;;;;;14.18;89.72;94786.05;1633414;86;21031;-54
2021/07/25 00:27:01;;;;;;;59.90;18.90;;;;;;;14.17;89.88;94783.14;1627622;87;21178;-54
2021/07/25 00:29:30;;;;;;;46.20;19.23;;;;;;;14.14;90.09;94781.28;1628019;87;20967;-53
2021/07/25 00:32:05;;;;;;;42.25;19.30;;;;;;;14.10;90.22;94783.43;1631190;87;21002;-53
2021/07/25 00:34:34;;;;;;;51.85;19.75;;;;;;;14.07;90.35;94780.22;1637677;87;21038;-54
2021/07/25 00:37:02;;;;;;;36.68;15.90;;;;;;;14.08;90.49;94779.77;1634538;87;21102;-54
2021/07/25 00:39:29;;;;;;;50.20;18.32;;;;;;;14.11;90.38;94776.05;1627866;87;21903;-52
2021/07/25 00:41:55;;;;;;;40.95;18.30;;;;;;;14.15;90.33;94770.36;1610507;87;21023;-53
2021/07/25 00:44:22;;;;;;;33.88;16.07;;;;;;;14.18;90.16;94762.53;1629078;86;21529;-54
2021/07/25 00:46:58;;;;;;;20.05;11.45;;;;;;;14.20;90.08;94764.20;1627735;87;20999;-54
2021/07/25 00:49:26;;;;;;;23.25;12.63;;;;;;;14.19;89.58;94757.89;1625852;88;21098;-54
2021/07/25 00:51:53;;;;;;;20.35;12.37;;;;;;;14.16;89.26;94765.00;1627902;87;21164;-54
2021/07/25 00:54:21;;;;;;;20.27;12.00;;;;;;;14.14;89.08;94766.06;1627526;87;20979;-54
2021/07/25 00:56:48;;;;;;;22.70;11.35;;;;;;;14.10;89.10;94770.38;1630201;87;20962;-54
2021/07/25 00:59:15;;;;;;;23.00;12.05;;;;;;;14.06;89.10;94772.55;1634666;87;21529;-54
2021/07/25 01:01:42;;;;;;;20.12;10.70;;;;;;;14.04;89.47;94772.86;1631672;87;21002;-55
2021/07/25 01:04:23;;;;;;;22.73;11.50;;;;;;;14.00;89.56;94763.97;1625434;87;21155;-54
2021/07/25 01:07:02;;;;;;;23.12;11.73;;;;;;;13.95;89.97;94765.97;1630350;86;21023;-54
2021/07/25 01:09:46;;;;;;;20.45;11.97;;;;;;;13.93;89.91;94764.30;1628435;87;21038;-54
2021/07/25 01:12:27;;;;;;;16.45;11.40;;;;;;;13.94;90.19;94771.36;1634035;87;21058;-54
2021/07/25 01:14:54;;;;;;;15.10;9.90;;;;;;;13.95;89.84;94760.44;1634736;87;21066;-54
2021/07/25 01:17:31;;;;;;;13.68;9.68;;;;;;;13.95;89.48;94769.52;1625654;88;21162;-54
2021/07/25 01:20:05;;;;;;;15.18;10.63;;;;;;;13.93;89.36;94762.91;1630840;87;20972;-55
2021/07/25 01:22:39;;;;;;;16.10;9.85;;;;;;;13.87;89.56;94769.72;1630509;87;20983;-54
2021/07/25 01:25:09;;;;;;;16.37;9.43;;;;;;;13.85;89.96;94765.88;1613187;88;21000;-54
2021/07/25 01:28:07;;;;;;;10.60;8.48;;;;;;;13.84;89.78;94760.95;1591352;88;21078;-53
2021/07/25 01:30:37;;;;;;;19.12;8.65;;;;;;;13.78;89.55;94762.08;1594389;88;22417;-54
2021/07/25 01:33:09;;;;;;;15.63;9.93;;;;;;;13.73;89.55;94761.31;1611845;88;20973;-54
2021/07/25 01:35:37;;;;;;;12.28;9.98;;;;;;;13.69;89.68;94759.33;1596801;88;21478;-54
2021/07/25 01:38:06;;;;;;;12.23;8.90;;;;;;;13.69;89.97;94758.73;1611441;88;21040;-53
2021/07/25 01:40:32;;;;;;;14.25;8.80;;;;;;;13.68;89.57;94757.80;1626973;87;21612;-53
2021/07/25 01:43:00;;;;;;;15.53;9.90;;;;;;;13.63;89.28;94761.20;1584232;90;21132;-54
2021/07/25 01:45:27;;;;;;;17.73;9.30;;;;;;;13.59;89.47;94764.13;1581530;89;21084;-54
2021/07/25 01:47:54;;;;;;;17.82;9.43;;;;;;;13.58;89.46;94757.06;1581680;90;21091;-54
2021/07/25 01:50:21;;;;;;;21.82;9.60;;;;;;;13.55;89.46;94764.14;1581493;89;22083;-54
2021/07/25 01:52:48;;;;;;;26.00;9.60;;;;;;;13.50;89.58;94764.77;1581547;89;21048;-54
2021/07/25 01:55:15;;;;;;;17.50;9.35;;;;;;;13.42;89.74;94771.23;1581691;90;21215;-54
2021/07/25 01:57:42;;;;;;;27.58;9.50;;;;;;;13.38;90.02;94780.91;1581664;89;21003;-54
2021/07/25 02:00:11;;;;;;;39.08;18.67;;;;;;;13.36;90.17;94773.70;1632460;87;20979;-54
2021/07/25 02:02:37;;;;;;;31.42;12.40;;;;;;;13.30;90.30;94777.70;1627738;86;20987;-56
2021/07/25 02:05:06;;;;;;;32.03;13.75;;;;;;;13.26;90.42;94779.11;1627563;87;20989;-54
2021/07/25 02:07:34;;;;;;;29.72;13.55;;;;;;;13.21;90.46;94775.57;1625792;88;21797;-54
2021/07/25 02:10:00;;;;;;;33.20;15.95;;;;;;;13.18;90.56;94774.52;1625569;88;21011;-54
2021/07/25 02:12:27;;;;;;;48.13;19.48;;;;;;;13.19;90.51;94773.28;1625693;88;20971;-56
2021/07/25 02:14:54;;;;;;;91.45;28.15;;;;;;;13.17;90.47;94775.75;1625897;87;21137;-55
2021/07/25 02:17:21;;;;;;;43.98;24.87;;;;;;;13.13;90.66;94771.61;1631735;87;20979;-55
2021/07/25 02:19:47;;;;;;;47.15;23.10;;;;;;;13.12;90.81;94771.45;1625655;87;21982;-53
2021/07/25 02:22:14;;;;;;;32.75;17.05;;;;;;;13.10;90.61;94770.52;1627852;87;21026;-55
2021/07/25 02:24:41;;;;;;;29.85;16.35;;;;;;;13.11;90.58;94776.83;1629799;87;20974;-55
2021/07/25 02:27:09;;;;;;;27.58;14.18;;;;;;;13.08;90.60;94775.75;1625467;88;21129;-56
2021/07/25 02:29:36;;;;;;;19.40;11.50;;;;;;;13.09;90.78;94765.48;1625626;88;21003;-55
2021/07/25 02:32:04;;;;;;;23.92;10.23;;;;;;;13.13;90.49;94779.29;1627731;87;21135;-55
2021/07/25 02:34:31;;;;;;;17.15;9.55;;;;;;;13.15;90.20;94776.05;1630676;86;20967;-55
2021/07/25 02:36:59;;;;;;;14.33;10.28;;;;;;;13.15;89.85;94779.59;1625590;88;20963;-54
2021/07/25 02:39:27;;;;;;;23.38;12.75;;;;;;;13.14;89.96;94775.30;1625647;88;21002;-55
2021/07/25 02:41:54;;;;;;;39.85;20.27;;;;;;;13.15;90.01;94787.09;1633066;87;21565;-54
2021/07/25 02:44:20;;;;;;;41.23;20.05;;;;;;;13.08;89.89;94779.14;1627032;87;21089;-54
2021/07/25 02:46:48;;;;;;;44.83;16.65;;;;;;;13.01;90.08;94782.20;1625526;87;20999;-53
2021/07/25 02:49:16;;;;;;;33.67;16.93;;;;;;;12.96;90.01;94775.91;1629812;87;21062;-52
2021/07/25 02:51:43;;;;;;;37.58;15.93;;;;;;;12.92;90.28;94778.05;1631933;86;21533;-54
2021/07/25 02:54:09;;;;;;;27.60;17.42;;;;;;;12.91;90.58;94786.92;1625745;88;21030;-54
2021/07/25 02:56:38;;;;;;;35.45;15.32;;;;;;;12.94;90.76;94785.28;1629725;87;21143;-53
2021/07/25 02:59:05;;;;;;;25.85;11.43;;;;;;;12.94;90.54;94792.19;1632508;87;21022;-54
2021/07/25 03:01:32;;;;;;;23.25;10.90;;;;;;;12.90;90.29;94797.07;1625666;88;21462;-54
2021/07/25 03:03:58;;;;;;;12.88;9.70;;;;;;;12.89;90.36;94794.16;1629861;87;21018;-54
2021/07/25 03:06:26;;;;;;;18.30;11.15;;;;;;;12.91;90.51;94785.55;1625600;87;21014;-54
2021/07/25 03:08:52;;;;;;;23.55;11.57;;;;;;;12.97;90.65;94785.13;1631676;87;21811;-54
2021/07/25 03:11:21;;;;;;;17.52;9.48;;;;;;;13.06;90.88;94787.13;1631027;87;20963;-53
2021/07/25 03:13:48;;;;;;;16.50;10.58;;;;;;;13.15;90.66;94785.72;1626979;87;21514;-54
2021/07/25 03:16:16;;;;;;;21.17;12.00;;;;;;;13.25;90.32;94788.64;1625547;88;21046;-54
2021/07/25 03:18:44;;;;;;;18.05;10.95;;;;;;;13.30;90.20;94785.24;1627855;87;21038;-55
2021/07/25 03:21:12;;;;;;;30.10;12.58;;;;;;;13.35;90.19;94785.99;1627013;87;20960;-55
2021/07/25 03:23:38;;;;;;;18.73;10.20;;;;;;;13.36;89.98;94786.14;1636643;87;20967;-54
2021/07/25 03:26:05;;;;;;;35.30;14.30;;;;;;;13.32;89.73;94785.54;1625544;88;21090;-55
2021/07/25 03:28:32;;;;;;;28.55;12.53;;;;;;;13.28;89.73;94787.70;1627677;87;20995;-55
2021/07/25 03:30:59;;;;;;;30.50;14.30;;;;;;;13.26;89.91;94788.78;1629847;87;20966;-55
2021/07/25 03:33:25;;;;;;;33.73;14.87;;;;;;;13.22;90.16;94793.68;1627843;87;21068;-55
2021/07/25 03:35:52;;;;;;;33.73;14.63;;;;;;;13.19;90.37;94790.47;1628578;86;21061;-55
2021/07/25 03:38:19;;;;;;;28.95;13.88;;;;;;;13.17;90.54;94787.41;1637548;87;21065;-55
2021/07/25 03:40:47;;;;;;;29.63;14.80;;;;;;;13.15;90.58;94792.63;1627631;87;21042;-55
2021/07/25 03:43:14;;;;;;;36.40;17.35;;;;;;;13.09;90.60;94791.72;1625415;88;21038;-53
2021/07/25 03:45:44;;;;;;;32.85;18.12;;;;;;;13.06;90.86;94795.41;1625538;88;21071;-54
2021/07/25 03:48:11;;;;;;;27.27;14.23;;;;;;;13.01;91.05;94789.09;1626115;87;21004;-55
2021/07/25 03:50:40;;;;;;;25.08;13.85;;;;;;;13.01;91.35;94796.00;1631081;86;21790;-54
2021/07/25 03:53:08;;;;;;;29.45;13.93;;;;;;;13.01;91.74;94795.41;1635751;87;21014;-54
2021/07/25 03:55:35;;;;;;;26.17;13.62;;;;;;;13.08;92.21;94799.86;1632334;87;21156;-54
2021/07/25 03:58:03;;;;;;;33.78;13.32;;;;;;;13.14;92.49;94796.62;1627747;86;21795;-54
2021/07/25 04:00:30;;;;;;;36.73;15.85;;;;;;;13.25;92.83;94804.58;1625571;87;21015;-54
2021/07/25 04:02:57;;;;;;;26.70;14.80;;;;;;;13.35;92.91;94798.42;1627627;87;21093;-54
2021/07/25 04:05:25;;;;;;;20.23;11.78;;;;;;;13.43;92.91;94796.89;1636738;87;21077;-54
2021/07/25 04:07:51;;;;;;;28.05;11.30;;;;;;;13.50;92.65;94800.70;1627803;87;21104;-55
2021/07/25 04:10:18;;;;;;;25.70;11.68;;;;;;;13.55;92.56;94796.70;1629713;87;21098;-55
2021/07/25 04:12:45;;;;;;;24.98;12.45;;;;;;;13.63;92.45;94802.05;1627919;87;21030;-56
2021/07/25 04:15:13;;;;;;;28.73;13.45;;;;;;;13.66;92.14;94804.50;1627094;87;20979;-55
2021/07/25 04:17:40;;;;;;;28.35;13.60;;;;;;;13.65;91.92;94808.50;1625582;87;20983;-55
2021/07/25 04:20:09;;;;;;;23.90;13.85;;;;;;;13.59;91.70;94815.91;1633705;86;21616;-55
2021/07/25 04:22:37;;;;;;;37.33;14.93;;;;;;;13.60;91.87;94812.66;1636861;87;21803;-54
2021/07/25 04:25:06;;;;;;;27.42;14.45;;;;;;;13.64;91.78;94812.50;1625318;87;21137;-55
2021/07/25 04:27:35;;;;;;;24.02;14.30;;;;;;;13.63;91.62;94806.19;1628889;87;21502;-54
2021/07/25 04:30:04;;;;;;;21.23;13.50;;;;;;;13.61;91.70;94810.67;1633016;86;20971;-54
2021/07/25 04:32:32;;;;;;;24.18;12.53;;;;;;;13.59;91.73;94815.91;1633256;87;21456;-54
2021/07/25 04:35:00;;;;;;;29.18;14.18;;;;;;;13.55;91.85;94811.91;1625510;88;21184;-54
2021/07/25 04:37:30;;;;;;;19.77;11.50;;;;;;;13.56;91.83;94816.80;1607603;88;21470;-54
2021/07/25 04:39:57;;;;;;;30.23;13.80;;;;;;;13.61;91.93;94818.97;1628019;87;21014;-54
2021/07/25 04:42:26;;;;;;;23.10;13.40;;;;;;;13.64;91.95;94812.50;1625826;88;20995;-55
2021/07/25 04:45:01;;;;;;;24.25;13.55;;;;;;;13.71;92.07;94820.45;1629477;87;21105;-54
2021/07/25 04:47:38;;;;;;;20.30;11.53;;;;;;;13.71;91.92;94814.92;1634147;87;21741;-55
2021/07/25 04:50:09;;;;;;;19.05;12.75;;;;;;;13.73;92.03;94812.46;1635381;86;21156;-54
2021/07/25 04:52:40;;;;;;;20.17;12.80;;;;;;;13.79;92.05;94807.86;1633729;87;21066;-55
2021/07/25 04:55:11;;;;;;;25.05;14.63;;;;;;;13.88;92.11;94804.44;1625597;87;21071;-55
2021/07/25 04:57:41;;;;;;;27.07;12.85;;;;;;;13.97;92.25;94800.88;1628058;87;21042;-54
2021/07/25 05:00:13;;;;;;;23.73;11.43;;;;;;;14.13;92.13;94800.47;1631431;86;21265;-54
2021/07/25 05:02:44;;;;;;;26.45;13.58;;;;;;;14.26;91.71;94799.68;1625410;87;38062;-54
2021/07/25 05:05:13;;;;;;;21.23;10.85;;;;;;;14.40;91.32;94799.74;1625634;88;21423;-54
2021/07/25 05:07:41;;;;;;;13.55;9.23;;;;;;;14.52;90.62;94795.98;1626397;87;21011;-54
2021/07/25 05:10:10;;;;;;;14.58;9.63;;;;;;;14.65;89.92;94800.05;1651749;86;20998;-54
2021/07/25 05:12:51;;;;;;;14.23;8.55;;;;;;;14.73;88.69;94799.86;1625489;88;20963;-54
2021/07/25 05:15:26;;;;;;;16.15;9.25;;;;;;;14.80;87.87;94805.02;1650405;85;21018;-55
2021/07/25 05:18:09;;;;;;;13.72;7.83;;;;;;;14.86;87.24;94810.69;1629959;87;21113;-55
2021/07/25 05:20:45;;;;;;;15.20;8.70;;;;;;;14.96;86.74;94815.69;1628620;87;20994;-56
2021/07/25 05:23:21;;;;;;;16.00;8.73;;;;;;;15.03;86.02;94805.61;1616133;86;21458;-54
2021/07/25 05:25:53;;;;;;;18.82;8.55;;;;;;;15.13;85.57;94807.08;1627801;87;21205;-55
2021/07/25 05:28:20;;;;;;;16.15;8.10;;;;;;;15.21;84.98;94813.03;1627721;87;20983;-55
2021/07/25 05:30:55;;;;;;;10.43;8.15;;;;;;;15.27;84.64;94811.89;1631801;87;21023;-55
2021/07/25 05:33:23;;;;;;;11.65;8.00;;;;;;;15.35;84.23;94811.69;1625572;88;20978;-55
2021/07/25 05:35:50;;;;;;;14.47;8.50;;;;;;;15.42;83.92;94807.78;1634611;86;21021;-55
2021/07/25 05:38:18;;;;;;;19.50;8.70;;;;;;;15.50;83.54;94807.53;1627152;87;21152;-55
2021/07/25 05:40:45;;;;;;;14.13;8.23;;;;;;;15.60;83.41;94808.38;1636294;87;21034;-55
2021/07/25 05:43:11;;;;;;;12.37;7.50;;;;;;;15.73;82.90;94813.64;1629795;87;21038;-55
2021/07/25 05:45:38;;;;;;;10.80;7.85;;;;;;;15.87;82.51;94818.42;1629628;87;21019;-54
2021/07/25 05:48:07;;;;;;;12.63;8.30;;;;;;;15.98;82.29;94820.76;1630097;87;21013;-54
2021/07/25 05:50:34;;;;;;;12.78;8.38;;;;;;;16.05;81.97;94814.80;1631180;87;21825;-55
2021/07/25 05:53:01;;;;;;;14.40;8.63;;;;;;;16.12;81.61;94812.27;1628351;87;21025;-54
2021/07/25 05:55:33;;;;;;;19.98;9.85;;;;;;;16.23;81.57;94814.59;1626708;86;20983;-55
2021/07/25 05:58:00;;;;;;;11.53;8.33;;;;;;;16.37;81.39;94818.74;1629137;87;21036;-55
2021/07/25 06:00:27;;;;;;;17.10;8.93;;;;;;;16.52;80.75;94820.11;1625705;88;20995;-55
2021/07/25 06:03:02;;;;;;;10.78;7.87;;;;;;;16.60;80.16;94806.73;1626341;87;21155;-55
2021/07/25 06:05:36;;;;;;;19.00;8.58;;;;;;;16.71;79.57;94807.50;1628202;87;20959;-55
2021/07/25 06:08:06;;;;;;;10.13;8.10;;;;;;;16.79;79.06;94806.61;1627812;87;21042;-54
2021/07/25 06:10:37;;;;;;;16.75;7.87;;;;;;;16.85;78.79;94809.43;1629967;87;21062;-55
2021/07/25 06:13:04;;;;;;;12.95;7.92;;;;;;;16.90;78.50;94807.38;1625645;88;21022;-55
2021/07/25 06:15:33;;;;;;;13.55;8.38;;;;;;;16.98;78.43;94811.25;1627510;87;21145;-54
2021/07/25 06:18:03;;;;;;;13.50;7.85;;;;;;;17.09;78.26;94804.45;1631153;87;21011;-55
2021/07/25 06:20:30;;;;;;;23.73;8.35;;;;;;;17.17;78.05;94809.10;1630869;87;20986;-54
2021/07/25 06:22:58;;;;;;;18.52;10.20;;;;;;;17.27;77.73;94804.91;1638004;87;20994;-55
2021/07/25 06:25:28;;;;;;;13.05;8.30;;;;;;;17.35;77.62;94792.75;1630977;87;21034;-55
2021/07/25 06:27:58;;;;;;;16.15;8.58;;;;;;;17.46;77.46;94796.42;1633064;87;21199;-55
2021/07/25 06:30:26;;;;;;;16.27;8.38;;;;;;;17.58;76.99;94799.45;1627874;87;21530;-54
2021/07/25 06:33:03;;;;;;;14.15;9.48;;;;;;;17.70;76.71;94794.15;1625526;87;20979;-55
2021/07/25 06:35:32;;;;;;;11.73;8.08;;;;;;;17.86;76.36;94792.77;1625799;87;20982;-55
2021/07/25 06:38:02;;;;;;;17.23;8.83;;;;;;;17.99;75.70;94791.75;1632184;87;21141;-54
2021/07/25 06:40:29;;;;;;;13.62;9.23;;;;;;;18.08;75.00;94794.34;1630076;87;21218;-54
2021/07/25 06:42:58;;;;;;;17.15;9.05;;;;;;;18.18;74.36;94787.47;1635075;87;20978;-55
2021/07/25 06:45:25;;;;;;;20.12;8.68;;;;;;;18.30;74.14;94784.17;1627521;87;21007;-56
2021/07/25 06:47:53;;;;;;;11.33;7.97;;;;;;;18.45;73.97;94784.14;1629752;87;21160;-55
2021/07/25 06:50:21;;;;;;;15.72;9.35;;;;;;;18.57;73.24;94769.02;1625626;88;21025;-55
2021/07/25 06:52:49;;;;;;;14.87;8.75;;;;;;;18.68;73.13;94776.03;1633872;86;21168;-55
2021/07/25 06:55:18;;;;;;;14.47;8.05;;;;;;;18.80;72.54;94774.84;1637986;87;21082;-54
2021/07/25 06:57:44;;;;;;;14.03;8.50;;;;;;;18.89;72.37;94777.43;1630855;87;20966;-54
2021/07/25 07:00:13;;;;;;;12.45;9.35;;;;;;;19.00;71.80;94771.14;1632088;87;20990;-54
2021/07/25 07:02:54;;;;;;;20.15;8.55;;;;;;;19.10;71.17;94769.03;1625501;87;21510;-56
2021/07/25 07:05:25;;;;;;;13.32;8.43;;;;;;;19.23;70.84;94768.59;1627765;87;21095;-55
2021/07/25 07:07:57;;;;;;;16.67;8.70;;;;;;;19.38;70.29;94767.10;1632873;87;21435;-56
2021/07/25 07:10:27;;;;;;;12.68;8.75;;;;;;;19.51;69.74;94766.00;1633343;87;21082;-56
2021/07/25 07:12:56;;;;;;;23.23;14.20;;;;;;;19.63;69.28;94761.97;1635681;86;21034;-56
2021/07/25 07:15:26;;;;;;;12.23;8.53;;;;;;;19.72;69.02;94758.92;1632667;87;21574;-56
2021/07/25 07:17:55;;;;;;;11.60;7.90;;;;;;;19.85;68.42;94758.42;1625515;88;21799;-56
2021/07/25 07:20:22;;;;;;;13.80;8.23;;;;;;;19.97;67.57;94756.55;1627686;87;20978;-56
2021/07/25 07:23:00;;;;;;;13.28;7.42;;;;;;;20.12;66.70;94754.92;1625376;88;20990;-54
2021/07/25 07:25:31;;;;;;;10.93;7.47;;;;;;;20.25;64.95;94746.92;1629680;87;21085;-55
2021/07/25 07:27:58;;;;;;;9.40;7.60;;;;;;;20.40;64.21;94750.17;1625880;88;21450;-57
2021/07/25 07:30:25;;;;;;;12.03;7.67;;;;;;;20.52;64.79;94742.56;1632821;87;21762;-55
2021/07/25 07:32:51;;;;;;;12.75;7.85;;;;;;;20.63;64.75;94734.13;1635400;87;21049;-55
2021/07/25 07:35:22;;;;;;;14.55;8.83;;;;;;;20.75;64.16;94730.04;1633890;87;20987;-56
2021/07/25 07:37:50;;;;;;;12.53;7.95;;;;;;;20.88;64.08;94726.06;1623480;87;21514;-56
2021/07/25 07:40:18;;;;;;;12.50;8.58;;;;;;;21.04;65.14;94728.81;1631041;87;21054;-56
2021/07/25 07:42:45;;;;;;;9.15;7.97;;;;;;;21.22;65.07;94734.44;1631955;86;21155;-56
2021/07/25 07:45:14;;;;;;;9.63;7.08;;;;;;;21.39;63.78;94737.92;1630022;86;21011;-55
2021/07/25 07:47:41;;;;;;;8.73;7.35;;;;;;;21.50;63.05;94729.47;1629648;87;21593;-55
2021/07/25 07:50:09;;;;;;;11.00;7.72;;;;;;;21.67;63.06;94735.09;1628804;87;20974;-55
2021/07/25 07:52:36;;;;;;;9.78;7.05;;;;;;;21.83;62.38;94728.63;1625755;87;21008;-55
2021/07/25 07:55:04;;;;;;;9.93;7.53;;;;;;;22.01;62.53;94733.58;1631331;86;21130;-57
2021/07/25 07:57:32;;;;;;;12.90;7.72;;;;;;;22.16;61.97;94729.77;1628884;87;21011;-56
2021/07/25 07:59:59;;;;;;;8.45;7.05;;;;;;;22.37;62.35;94730.22;1627643;87;20987;-56
2021/07/25 08:02:25;;;;;;;8.70;7.25;;;;;;;22.54;62.19;94730.85;1627752;87;21042;-55
2021/07/25 08:04:52;;;;;;;11.53;7.35;;;;;;;22.74;61.44;94726.17;1625448;87;21129;-57
2021/07/25 08:07:20;;;;;;;10.58;7.60;;;;;;;22.97;61.63;94720.42;1625546;87;21492;-59
2021/07/25 08:09:46;;;;;;;9.25;7.10;;;;;;;23.18;60.92;94715.84;1625660;88;21478;-60
2021/07/25 08:12:13;;;;;;;9.25;7.25;;;;;;;23.34;59.93;94719.72;1628465;86;21518;-57
2021/07/25 08:14:40;;;;;;;11.22;7.12;;;;;;;23.50;60.43;94713.89;1630923;87;21455;-57
2021/07/25 08:17:10;;;;;;;9.65;7.12;;;;;;;23.68;60.41;94716.56;1638210;84;21085;-56
2021/07/25 08:19:39;;;;;;;8.15;7.10;;;;;;;23.86;59.04;94705.97;1657114;86;21079;-56
2021/07/25 08:22:07;;;;;;;9.55;7.35;;;;;;;24.02;58.60;94705.73;1659097;86;21014;-56
2021/07/25 08:24:36;;;;;;;16.07;7.47;;;;;;;24.17;58.49;94708.81;1656348;86;21010;-56
2021/07/25 08:27:04;;;;;;;9.18;7.28;;;;;;;24.36;58.23;94712.31;1658908;85;21089;-56
2021/07/25 08:29:31;;;;;;;8.00;7.00;;;;;;;24.57;57.55;94702.73;1656166;86;22386;-57
2021/07/25 08:31:59;;;;;;;9.08;6.92;;;;;;;24.69;57.12;94694.84;1656631;86;21137;-56
2021/07/25 08:34:26;;;;;;;11.15;6.75;;;;;;;24.77;56.03;94705.58;1656163;85;21494;-56
2021/07/25 08:36:54;;;;;;;12.63;7.17;;;;;;;24.81;55.08;94705.38;1658693;86;21125;-56
2021/07/25 08:39:21;;;;;;;11.22;6.25;;;;;;;24.85;53.91;94696.58;1657325;86;21446;-55
2021/07/25 08:42:03;;;;;;;12.98;7.50;;;;;;;24.85;54.11;94698.77;1658489;85;21414;-56
2021/07/25 08:44:49;;;;;;;8.55;7.05;;;;;;;24.83;54.76;94693.55;1658361;85;21213;-56
2021/07/25 08:47:33;;;;;;;11.43;7.70;;;;;;;24.77;52.87;94695.73;1658980;85;20966;-56
2021/07/25 08:50:11;;;;;;;13.28;6.85;;;;;;;24.71;53.50;94691.61;1656774;85;21002;-56
2021/07/25 08:52:42;;;;;;;26.73;9.60;;;;;;;24.64;52.88;94695.71;1658641;85;21127;-56
2021/07/25 08:55:13;;;;;;;41.73;33.63;;;;;;;24.56;52.64;94693.45;1657396;86;21482;-56
2021/07/25 08:57:42;;;;;;;14.13;10.93;;;;;;;24.51;52.65;94694.25;1657835;85;21143;-56
2021/07/25 09:00:12;;;;;;;34.00;8.80;;;;;;;24.49;52.74;94695.45;1656804;85;21273;-55
2021/07/25 09:02:41;;;;;;;15.98;6.95;;;;;;;24.47;52.65;94687.56;1656125;86;21060;-58
2021/07/25 09:05:10;;;;;;;12.35;6.90;;;;;;;24.56;52.37;94681.53;1658103;86;21022;-57
2021/07/25 09:07:42;;;;;;;8.40;7.33;;;;;;;24.77;53.23;94682.40;1655715;86;21069;-56
2021/07/25 09:10:17;;;;;;;11.87;7.07;;;;;;;24.95;52.51;94685.75;1656499;86;21135;-56
2021/07/25 09:12:44;;;;;;;9.25;7.15;;;;;;;25.03;52.03;94675.37;1655955;86;21025;-55
2021/07/25 09:15:17;;;;;;;10.75;6.22;;;;;;;25.13;51.05;94681.31;1655483;85;20970;-56
2021/07/25 09:17:44;;;;;;;19.07;11.40;;;;;;;25.24;50.99;94680.45;1656956;86;21120;-57
2021/07/25 09:20:27;;;;;;;15.63;6.67;;;;;;;25.41;50.06;94680.08;1658439;85;21037;-57
2021/07/25 09:23:06;;;;;;;17.73;8.43;;;;;;;25.60;50.40;94684.91;1657314;86;21138;-55
2021/07/25 09:25:45;;;;;;;7.72;6.47;;;;;;;25.86;49.45;94684.20;1655280;85;21065;-56
2021/07/25 09:28:16;;;;;;;29.40;7.65;;;;;;;26.09;46.63;94677.48;1655401;85;20998;-57
2021/07/25 09:30:44;;;;;;;10.90;6.45;;;;;;;26.25;45.36;94679.13;1655569;86;21070;-56
2021/07/25 09:33:35;;;;;;;18.50;7.33;;;;;;;26.41;45.06;94674.36;1657492;86;21026;-55
2021/07/25 09:36:05;;;;;;;9.13;6.42;;;;;;;26.56;44.35;94673.87;1659408;86;21132;-57
2021/07/25 09:38:33;;;;;;;9.20;5.85;;;;;;;26.74;44.57;94671.46;1657206;86;20965;-54
2021/07/25 09:41:01;;;;;;;6.80;6.03;;;;;;;26.84;44.88;94659.74;1655523;86;21003;-55
2021/07/25 09:43:29;;;;;;;6.22;5.37;;;;;;;26.90;44.09;94667.42;1683728;84;21530;-56
2021/07/25 09:45:58;;;;;;;7.10;5.47;;;;;;;26.88;43.81;94670.02;1678457;85;21005;-55
2021/07/25 09:48:34;;;;;;;16.45;6.47;;;;;;;26.89;43.07;94675.77;1656144;86;21127;-55
2021/07/25 09:51:03;;;;;;;9.50;5.90;;;;;;;26.86;43.35;94674.73;1658101;86;21243;-57
2021/07/25 09:53:45;;;;;;;6.50;5.58;;;;;;;26.89;44.53;94678.59;1659478;85;21079;-56
2021/07/25 09:56:13;;;;;;;11.15;5.55;;;;;;;27.02;44.88;94670.69;1657779;86;21021;-55
2021/07/25 09:58:41;;;;;;;11.57;6.00;;;;;;;27.20;44.01;94667.60;1656694;86;21477;-55
2021/07/25 10:01:08;;;;;;;7.15;5.67;;;;;;;27.38;45.23;94663.73;1656269;86;21134;-56
2021/07/25 10:03:35;;;;;;;9.20;6.03;;;;;;;27.54;43.84;94658.87;1657374;85;21081;-55
2021/07/25 10:06:24;;;;;;;8.60;6.37;;;;;;;27.66;43.80;94663.66;1657812;86;21102;-55
2021/07/25 10:09:14;;;;;;;8.70;5.87;;;;;;;27.79;43.27;94666.34;1655950;86;21458;-56
2021/07/25 10:12:03;;;;;;;10.38;6.80;;;;;;;27.89;44.98;94665.23;1657040;86;20969;-55
2021/07/25 10:14:31;;;;;;;7.00;5.60;;;;;;;27.98;44.11;94663.28;1660160;85;21167;-55
2021/07/25 10:17:01;;;;;;;8.98;6.17;;;;;;;28.13;42.79;94652.64;1657057;86;20994;-56
2021/07/25 10:19:35;;;;;;;6.65;5.92;;;;;;;28.23;41.95;94655.02;1655757;86;21437;-56
2021/07/25 10:22:06;;;;;;;7.30;5.58;;;;;;;28.39;42.44;94655.89;1657785;86;20965;-56
2021/07/25 10:24:32;;;;;;;7.97;4.85;;;;;;;28.52;41.33;94653.53;1659677;86;21108;-56
2021/07/25 10:26:59;;;;;;;6.72;5.55;;;;;;;28.49;40.31;94656.84;1657455;86;21939;-56
2021/07/25 10:29:28;;;;;;;12.25;8.10;;;;;;;28.44;39.39;94654.20;1655516;86;20997;-55
2021/07/25 10:31:55;;;;;;;7.80;5.50;;;;;;;28.45;40.01;94650.81;1655577;86;21045;-55
2021/07/25 10:34:23;;;;;;;10.70;5.42;;;;;;;28.57;41.12;94648.36;1656972;86;21065;-55
2021/07/25 10:36:52;;;;;;;8.08;5.35;;;;;;;28.61;41.53;94645.89;1656360;85;20991;-56
2021/07/25 10:39:20;;;;;;;6.47;5.65;;;;;;;28.82;41.40;94655.69;1642018;86;21194;-55
2021/07/25 10:41:51;;;;;;;7.60;6.00;;;;;;;29.03;38.98;94649.80;1659426;86;21088;-54
2021/07/25 10:44:18;;;;;;;6.97;6.08;;;;;;;29.24;39.39;94645.41;1657400;86;21050;-56
2021/07/25 10:46:46;;;;;;;11.15;6.00;;;;;;;29.29;40.23;94639.45;1655494;86;21158;-56
2021/07/25 10:49:15;;;;;;;6.87;5.92;;;;;;;29.23;39.93;94642.48;1638097;86;21585;-57
2021/07/25 10:51:58;;;;;;;7.92;5.50;;;;;;;29.37;39.32;94647.25;1655527;86;21222;-59
2021/07/25 10:54:31;;;;;;;7.35;5.47;;;;;;;29.53;38.58;94640.22;1656445;84;21045;-56
2021/07/25 10:57:12;;;;;;;7.50;6.10;;;;;;;29.82;37.82;94645.63;1602785;88;20973;-55
2021/07/25 10:59:55;;;;;;;6.00;5.33;;;;;;;30.13;37.35;94651.34;1591767;88;21157;-58
2021/07/25 11:02:29;;;;;;;7.30;5.25;;;;;;;30.09;36.87;94643.13;1589833;89;21082;-56
2021/07/25 11:05:01;;;;;;;8.03;5.28;;;;;;;30.39;37.38;94635.82;1591063;88;21159;-55
2021/07/25 11:07:33;;;;;;;5.93;5.30;;;;;;;30.45;38.31;94641.36;1598993;89;21024;-56
2021/07/25 11:10:06;;;;;;;6.42;5.20;;;;;;;30.73;38.06;94640.97;1589469;90;21515;-57
2021/07/25 11:12:55;;;;;;;6.42;4.92;;;;;;;31.12;34.98;94637.84;1593683;87;21107;-56
2021/07/25 11:15:32;;;;;;;7.70;5.15;;;;;;;30.89;34.04;94639.46;1607686;87;21138;-56
2021/07/25 11:18:05;;;;;;;7.50;5.30;;;;;;;30.73;33.40;94641.63;1620672;87;21305;-56
2021/07/25 11:20:50;;;;;;;;;;;;;;;30.45;34.29;94635.67;1619721;87;20973;-55
2021/07/25 11:23:22;;;;;;;7.85;5.78;;;;;;;30.17;34.66;94641.01;1611748;87;20195;-56
2021/07/25 11:25:51;;;;;;;12.20;5.92;;;;;;;29.83;35.03;94639.39;1617261;87;21644;-57
2021/07/25 11:28:42;;;;;;;15.32;6.40;;;;;;;29.52;35.18;94641.55;1600966;87;20981;-55
2021/07/25 11:31:13;;;;;;;13.93;8.18;;;;;;;29.25;35.18;94643.31;1616905;87;21644;-56
2021/07/25 11:33:46;;;;;;;10.40;5.60;;;;;;;29.30;34.68;94648.04;1612462;87;21039;-55
2021/07/25 11:36:16;;;;;;;7.65;5.47;;;;;;;29.29;36.35;94647.95;1615209;87;21083;-57
2021/07/25 11:38:49;;;;;;;9.88;5.72;;;;;;;29.33;35.24;94645.48;1615931;87;21042;-55